^^
Paulen-Weather Station Historical Data
Daily Summary for May 24, 2022 Units:  English    Metric   Both
Daily Weekly Monthly Yearly Custom
  High: Low: Average:
Temperature: 57.2 °F 55.4 °F 57 °F
Dew Point: 51.8 °F 51.8 °F 51.8 °F
Humidity: 87% 82% 85%
Wind Speed: 21.7mph 14.9mph 18.1mph
Wind Gust: 18.6mph - -
Wind- - NE
Pressure: 29.6 in 29.5 in -
Precipitation: 0 in    
Historical Graphs
 
 
Tabular Data for May 24, 2022
Time Temperature Dew Point Pressure Wind Wind Speed Wind Gust Humidity Rainfall Rate (Hourly) solar
00:04 57.2 °F 51.8 °F 29.6 in NE 19.3 mph 16.2 mph 83% 0 in 0 W/m2
00:09 57.2 °F 51.8 °F 29.6 in NNE 19.3 mph 15.5 mph 84% 0 in 0 W/m2
00:14 57.2 °F 51.8 °F 29.6 in NE 17.4 mph 14.3 mph 85% 0 in 0 W/m2
00:19 57.2 °F 51.8 °F 29.6 in NE 14.9 mph 13 mph 85% 0 in 0 W/m2
00:24 57.2 °F 51.8 °F 29.6 in NNE 16.8 mph 15.5 mph 86% 0 in 0 W/m2
00:29 57.2 °F 51.8 °F 29.6 in NE 16.8 mph 13 mph 86% 0 in 0 W/m2
00:34 57.2 °F 51.8 °F 29.6 in NNE 17.4 mph 14.3 mph 85% 0 in 0 W/m2
00:39 57.2 °F 51.8 °F 29.6 in NNE 17.4 mph 14.3 mph 85% 0 in 0 W/m2
00:44 57.2 °F 51.8 °F 29.6 in NE 17.4 mph 13.7 mph 85% 0 in 0 W/m2
00:49 57.2 °F 51.8 °F 29.6 in NE 15.5 mph 13.7 mph 85% 0 in 0 W/m2
00:54 57.2 °F 51.8 °F 29.6 in NE 16.2 mph 13 mph 85% 0 in 0 W/m2
00:59 57.2 °F 51.8 °F 29.6 in NNE 16.8 mph 13.7 mph 84% 0 in 0 W/m2
01:04 57.2 °F 51.8 °F 29.6 in NNE 16.2 mph 13.7 mph 84% 0 in 0 W/m2
01:09 57.2 °F 51.8 °F 29.6 in NNE 17.4 mph 13.7 mph 83% 0 in 0 W/m2
01:14 57.2 °F 51.8 °F 29.6 in NNE 17.4 mph 14.3 mph 82% 0 in 0 W/m2
01:19 57.2 °F 51.8 °F 29.6 in ENE 16.8 mph 14.3 mph 82% 0 in 0 W/m2
01:24 57.2 °F 51.8 °F 29.6 in ENE 18 mph 15.5 mph 82% 0 in 0 W/m2
01:29 57.2 °F 51.8 °F 29.6 in NNE 17.4 mph 14.3 mph 82% 0 in 0 W/m2
01:34 57.2 °F 51.8 °F 29.6 in NE 18 mph 16.2 mph 82% 0 in 0 W/m2
01:39 57.2 °F 51.8 °F 29.6 in N 18.6 mph 13 mph 83% 0 in 0 W/m2
01:44 57.2 °F 51.8 °F 29.6 in NNE 17.4 mph 14.3 mph 83% 0 in 0 W/m2
01:49 57.2 °F 51.8 °F 29.6 in NNE 17.4 mph 13.7 mph 83% 0 in 0 W/m2
01:54 57.2 °F 51.8 °F 29.6 in NNE 19.3 mph 16.2 mph 83% 0 in 0 W/m2
01:59 57.2 °F 51.8 °F 29.6 in NNE 19.3 mph 15.5 mph 84% 0 in 0 W/m2
02:04 57.2 °F 51.8 °F 29.6 in NE 18 mph 14.3 mph 85% 0 in 0 W/m2
02:09 57.2 °F 51.8 °F 29.6 in NNE 18.6 mph 14.9 mph 85% 0 in 0 W/m2
02:14 57.2 °F 51.8 °F 29.5 in ENE 18.6 mph 14.9 mph 85% 0 in 0 W/m2
02:19 57.2 °F 51.8 °F 29.5 in NNE 19.3 mph 15.5 mph 86% 0 in 0 W/m2
02:24 57.2 °F 51.8 °F 29.5 in NE 18 mph 14.9 mph 86% 0 in 0 W/m2
02:29 57.2 °F 51.8 °F 29.5 in NNE 21.1 mph 18.6 mph 86% 0 in 0 W/m2
02:34 57.2 °F 51.8 °F 29.5 in NNE 21.7 mph 16.2 mph 86% 0 in 0 W/m2
02:39 57.2 °F 51.8 °F 29.5 in NE 20.5 mph 16.2 mph 85% 0 in 0 W/m2
02:44 57.2 °F 51.8 °F 29.5 in NNE 19.9 mph 15.5 mph 85% 0 in 0 W/m2
02:49 57.2 °F 51.8 °F 29.5 in NNE 19.9 mph 16.2 mph 86% 0 in 0 W/m2
02:54 57.2 °F 51.8 °F 29.5 in NE 18.6 mph 16.2 mph 85% 0 in 0 W/m2
02:59 57.2 °F 51.8 °F 29.5 in NNE 20.5 mph 16.2 mph 86% 0 in 0 W/m2
03:04 55.4 °F 51.8 °F 29.5 in NNE 19.3 mph 15.5 mph 86% 0 in 0 W/m2
03:09 55.4 °F 51.8 °F 29.5 in NNE 19.3 mph 15.5 mph 86% 0 in 0 W/m2
03:14 55.4 °F 51.8 °F 29.5 in NE 16.2 mph 13 mph 86% 0 in 0 W/m2
03:19 55.4 °F 51.8 °F 29.5 in NE 18 mph 15.5 mph 86% 0 in 0 W/m2
03:24 55.4 °F 51.8 °F 29.5 in NE 18.6 mph 16.2 mph 87% 0 in 0 W/m2
Compliments of Weather Underground - 2 mb